^^
Saratoga-Weather Station Historical Data
Daily Summary for July 10, 2021 Units:  English    Metric   Both
Daily Weekly Monthly Yearly Custom
  High: Low: Average:
Temperature: 75 °F 55.6 °F 65.7 °F
Dew Point: 64.4 °F 52.5 °F 58.3 °F
Humidity: 93% 60% 78%
Wind Speed: 10.1mph 0mph 0.9mph
Wind Gust: 10mph - -
Wind- - WSW
Pressure: 30.1 in 30 in -
Precipitation: 0.01 in    
Historical Graphs
 
 
Tabular Data for July 10, 2021
Time Temperature Dew Point Pressure Wind Wind Speed Wind Gust Humidity Rainfall Rate (Hourly) solar
00:00 58.6 °F 53.4 °F 30 in Calm     83% 0 in 0 W/m2
00:05 58.5 °F 53.6 °F 30 in Calm     84% 0 in 0 W/m2
00:10 58.3 °F 53.4 °F 30 in Calm     84% 0 in 0 W/m2
00:15 58.3 °F 53.4 °F 30 in Calm     84% 0 in 0 W/m2
00:20 58.3 °F 53.1 °F 30 in WSW 0.9 mph 3 mph 83% 0 in 0 W/m2
00:25 58.6 °F 52.9 °F 30 in West 2 mph 6 mph 81% 0 in 0 W/m2
00:30 59.5 °F 53.1 °F 30 in SW 2.9 mph 4 mph 79% 0 in 0 W/m2
00:35 60.3 °F 53.1 °F 30 in WSW 0.9 mph 6 mph 77% 0 in 0 W/m2
00:40 61 °F 53.1 °F 30 in West 2 mph 3 mph 75% 0 in 0 W/m2
00:45 61.5 °F 53.2 °F 30 in West 2.9 mph 4 mph 74% 0 in 0 W/m2
00:50 61.9 °F 53.4 °F 30 in Calm   3 mph 74% 0 in 0 W/m2
00:55 61.9 °F 53.8 °F 30 in West 0.9 mph 1 mph 75% 0 in 0 W/m2
01:01 61.5 °F 54 °F 30 in Calm     76% 0 in 0 W/m2
01:06 61.2 °F 54 °F 30 in Calm     77% 0 in 0 W/m2
01:11 60.6 °F 53.8 °F 30 in Calm     78% 0 in 0 W/m2
01:16 60.3 °F 53.8 °F 30 in Calm     79% 0 in 0 W/m2
01:21 59.9 °F 53.8 °F 30 in Calm     80% 0 in 0 W/m2
01:26 59.5 °F 53.4 °F 30 in Calm     80% 0 in 0 W/m2
01:31 59.2 °F 53.6 °F 30 in Calm     82% 0 in 0 W/m2
01:36 58.8 °F 53.6 °F 30 in Calm     83% 0 in 0 W/m2
01:41 58.5 °F 53.6 °F 30 in Calm     84% 0 in 0 W/m2
01:46 58.3 °F 53.4 °F 30 in Calm     84% 0 in 0 W/m2
01:51 58.3 °F 53.8 °F 30 in Calm     85% 0 in 0 W/m2
01:56 57.9 °F 53.4 °F 30 in Calm     85% 0 in 0 W/m2
02:01 57.9 °F 53.4 °F 30 in Calm     85% 0 in 0 W/m2
02:06 57.9 °F 53.8 °F 30 in Calm     86% 0 in 0 W/m2
02:11 57.9 °F 53.8 °F 30 in Calm     86% 0 in 0 W/m2
02:16 57.9 °F 53.8 °F 30 in Calm     86% 0 in 0 W/m2
02:21 57.9 °F 53.8 °F 30 in Calm     86% 0 in 0 W/m2
02:26 57.9 °F 53.8 °F 30 in Calm     86% 0 in 0 W/m2
02:31 57.9 °F 54.1 °F 30 in Calm     87% 0 in 0 W/m2
02:36 57.7 °F 54 °F 30 in Calm     87% 0 in 0 W/m2
02:41 57.6 °F 53.8 °F 30 in Calm     87% 0 in 0 W/m2
02:46 57.6 °F 53.8 °F 30 in Calm     87% 0 in 0 W/m2
02:51 57.4 °F 53.6 °F 30 in Calm     87% 0 in 0 W/m2
02:56 57.2 °F 53.4 °F 30 in Calm     87% 0 in 0 W/m2
03:01 57 °F 53.2 °F 30 in Calm     87% 0 in 0 W/m2
03:06 56.8 °F 53.1 °F 30 in Calm     87% 0 in 0 W/m2
03:11 56.8 °F 53.1 °F 30 in Calm     87% 0 in 0 W/m2
03:16 56.7 °F 52.9 °F 30 in Calm     87% 0 in 0 W/m2
03:21 56.5 °F 52.9 °F 30 in Calm     88% 0 in 0 W/m2
03:26 56.5 °F 52.9 °F 30 in Calm     88% 0 in 0 W/m2
03:31 56.3 °F 52.9 °F 30 in Calm     88% 0 in 0 W/m2
03:36 56.1 °F 52.9 °F 30 in Calm     89% 0 in 0 W/m2
03:41 55.9 °F 52.7 °F 30 in Calm     89% 0 in 0 W/m2
03:46 55.9 °F 52.7 °F 30 in Calm     89% 0 in 0 W/m2
03:51 55.8 °F 52.5 °F 30 in Calm     89% 0 in 0 W/m2
03:56 55.8 °F 52.9 °F 30 in Calm     90% 0 in 0 W/m2
04:01 55.6 °F 52.7 °F 30 in Calm     90% 0 in 0 W/m2
04:06 55.6 °F 52.7 °F 30 in Calm     90% 0 in 0 W/m2
04:11 55.6 °F 53.1 °F 30 in Calm     91% 0 in 0 W/m2
04:16 55.8 °F 53.2 °F 30 in Calm     91% 0 in 0 W/m2
04:22 55.8 °F 53.2 °F 30 in Calm     91% 0 in 0 W/m2
04:27 55.9 °F 53.4 °F 30 in Calm     91% 0 in 0 W/m2
04:32 55.9 °F 53.4 °F 30 in Calm     91% 0 in 0 W/m2
04:37 56.1 °F 53.6 °F 30 in Calm   3 mph 91% 0 in 0 W/m2
04:42 56.5 °F 54 °F 30 in NNW 0.9 mph 3 mph 91% 0 in 0 W/m2
04:47 56.7 °F 54.1 °F 30 in Calm   2 mph 91% 0 in 0 W/m2
04:52 56.8 °F 54 °F 30 in NNW 0.9 mph 3 mph 90% 0 in 0 W/m2
04:57 57.4 °F 53.8 °F 30 in Calm   1 mph 88% 0 in 0 W/m2
05:02 57.9 °F 53.8 °F 30 in NNW 0.9 mph 2 mph 86% 0 in 0 W/m2
05:07 58.6 °F 53.8 °F 30 in Calm     84% 0 in 0 W/m2
05:12 59.2 °F 54.3 °F 30 in Calm   2 mph 84% 0 in 0 W/m2
05:17 59.2 °F 54.3 °F 30 in SW 0.9 mph 1 mph 84% 0 in 0 W/m2
05:22 59.2 °F 54.3 °F 30 in Calm   1 mph 84% 0 in 0 W/m2
05:27 59 °F 54.1 °F 30 in Calm   1 mph 84% 0 in 0 W/m2
05:32 58.8 °F 54 °F 30 in Calm     84% 0 in 0 W/m2
05:37 58.6 °F 54.1 °F 30 in Calm   1 mph 85% 0 in 0 W/m2
05:42 58.8 °F 54 °F 30 in Calm   2 mph 84% 0 in 0 W/m2
05:47 59.2 °F 54.3 °F 30 in Calm     84% 0 in 0 W/m2
05:52 59.4 °F 54.1 °F 30 in SSE 0.9 mph 1 mph 83% 0 in 0 W/m2
05:57 59.7 °F 54.1 °F 30 in Calm     82% 0 in 0 W/m2
06:02 59.9 °F 54.3 °F 30 in Calm   1 mph 82% 0 in 0 W/m2
06:07 59.9 °F 54.1 °F 30 in Calm   2 mph 81% 0 in 0 W/m2
06:12 60.1 °F 54.5 °F 30 in ESE 0.9 mph 2 mph 82% 0 in 0 W/m2
06:17 60.1 °F 54.5 °F 30 in ESE 0.9 mph 2 mph 82% 0 in 0 W/m2
06:22 60.1 °F 54.5 °F 30 in Calm   3 mph 82% 0 in 0 W/m2
06:27 60.1 °F 54.5 °F 30 in South 2 mph 2 mph 82% 0 in 0 W/m2
06:32 60.1 °F 54.5 °F 30 in Calm   2 mph 82% 0 in 0 W/m2
06:37 60.1 °F 55.2 °F 30 in WNW 0.9 mph 2 mph 84% 0 in 0 W/m2
06:42 60.1 °F 55.2 °F 30 in Calm   1 mph 84% 0 in 0 W/m2
06:47 59.9 °F 55.8 °F 30 in Calm   2 mph 86% 0 in 0 W/m2
06:52 59.7 °F 55.8 °F 30 in Calm     87% 0 in 5 W/m2
06:57 59.4 °F 55.8 °F 30 in Calm     88% 0 in 7 W/m2
07:02 59.4 °F 55.8 °F 30 in Calm     88% 0 in 7 W/m2
07:07 59.2 °F 55.9 °F 30 in ESE 2 mph 2 mph 89% 0 in 11 W/m2
07:12 58.8 °F 55.6 °F 30 in Calm     89% 0 in 21 W/m2
07:17 58.6 °F 55.4 °F 30 in Calm   1 mph 89% 0 in 19 W/m2
07:22 58.6 °F 55.8 °F 30 in Calm     90% 0 in 12 W/m2
07:27 58.5 °F 55.6 °F 30 in Calm   1 mph 90% 0.01 in 19 W/m2
07:32 58.5 °F 55.8 °F 30 in Calm     91% 0.01 in 26 W/m2
07:37 58.5 °F 55.8 °F 30 in West 2 mph 3 mph 91% 0.01 in 39 W/m2
07:42 58.5 °F 55.8 °F 30 in Calm   2 mph 91% 0.01 in 39 W/m2
07:47 58.3 °F 55.9 °F 30 in NW 0.9 mph 2 mph 92% 0.01 in 32 W/m2
07:52 58.3 °F 55.9 °F 30 in Calm   2 mph 92% 0.01 in 32 W/m2
07:57 58.3 °F 55.9 °F 30 in Calm   1 mph 92% 0.01 in 39 W/m2
08:02 58.5 °F 56.1 °F 30 in Calm   1 mph 92% 0.01 in 42 W/m2
08:07 58.5 °F 56.1 °F 30 in Calm     92% 0.01 in 54 W/m2
08:12 58.6 °F 56.7 °F 30 in Calm     93% 0.01 in 56 W/m2
08:17 58.6 °F 56.7 °F 30 in Calm     93% 0.01 in 51 W/m2
08:22 58.8 °F 56.8 °F 30 in Calm     93% 0.01 in 54 W/m2
08:28 58.8 °F 56.8 °F 30 in Calm     93% 0 in 58 W/m2
08:33 59 °F 57 °F 30 in WNW 0.9 mph 1 mph 93% 0 in 56 W/m2
08:38 59 °F 57 °F 30 in Calm   2 mph 93% 0 in 63 W/m2
08:43 59.2 °F 57.2 °F 30 in Calm     93% 0 in 81 W/m2
08:48 59.4 °F 57 °F 30 in Calm   2 mph 92% 0 in 109 W/m2
08:53 59.5 °F 57.2 °F 30 in Calm   1 mph 92% 0 in 197 W/m2
08:58 59.7 °F 57.7 °F 30 in Calm   2 mph 93% 0 in 100 W/m2
09:03 59.9 °F 57.6 °F 30 in Calm     92% 0 in 163 W/m2
09:08 60.3 °F 57.9 °F 30 in Calm     92% 0 in 193 W/m2
09:13 60.8 °F 58.5 °F 30 in NE 0.9 mph 2 mph 92% 0 in 197 W/m2
09:18 61.3 °F 58.6 °F 30 in Calm   3 mph 91% 0 in 186 W/m2
09:23 62.1 °F 59.2 °F 30 in ENE 0.9 mph 3 mph 90% 0 in 146 W/m2
09:28 62.2 °F 58.3 °F 30 in Calm     87% 0 in 169 W/m2
09:33 62.8 °F 59.2 °F 30 in Calm   2 mph 88% 0 in 193 W/m2
09:38 63.1 °F 59.5 °F 30.1 in Calm     88% 0 in 436 W/m2
09:43 63.5 °F 59.5 °F 30 in Calm     87% 0 in 141 W/m2
09:48 63.9 °F 59.2 °F 30 in Calm   2 mph 85% 0 in 225 W/m2
09:53 64.2 °F 59.4 °F 30 in NNE 0.9 mph 1 mph 84% 0 in 199 W/m2
09:58 64.8 °F 59.9 °F 30 in WNW 0.9 mph 1 mph 84% 0 in 425 W/m2
10:03 65.1 °F 60.1 °F 30 in Calm   1 mph 84% 0 in 508 W/m2
10:08 65.7 °F 60.6 °F 30.1 in WNW 0.9 mph 2 mph 84% 0 in 503 W/m2
10:13 65.8 °F 59.9 °F 30.1 in WNW 2.9 mph 3 mph 81% 0 in 515 W/m2
10:18 66 °F 59.7 °F 30.1 in WNW 4 mph 5 mph 80% 0 in 533 W/m2
10:23 66.4 °F 58.6 °F 30.1 in SSW 4 mph 4 mph 76% 0 in 543 W/m2
10:28 66.9 °F 60.6 °F 30.1 in WNW 0.9 mph 1 mph 80% 0 in 580 W/m2
10:33 67.5 °F 59.5 °F 30.1 in SW 2 mph 2 mph 76% 0 in 624 W/m2
10:38 67.8 °F 59.2 °F 30.1 in WNW 2.9 mph 5 mph 74% 0 in 213 W/m2
10:43 68 °F 60.4 °F 30.1 in West 0.9 mph 2 mph 77% 0 in 612 W/m2
10:48 68.2 °F 59.5 °F 30.1 in Calm   4 mph 74% 0 in 619 W/m2
10:53 68.5 °F 59.5 °F 30.1 in West 2.9 mph 4 mph 73% 0 in 631 W/m2
10:58 68.5 °F 59.5 °F 30.1 in West 4 mph 7 mph 73% 0 in 292 W/m2
11:03 68.2 °F 59.2 °F 30.1 in WSW 6.9 mph 8 mph 73% 0 in 353 W/m2
11:08 67.8 °F 58.5 °F 30 in WNW 0.9 mph 4 mph 72% 0 in 380 W/m2
11:13 68 °F 59.4 °F 30.1 in SSE 2.9 mph 3 mph 74% 0 in 295 W/m2
11:18 68.2 °F 59.2 °F 30.1 in West 2 mph 3 mph 73% 0 in 267 W/m2
11:23 68.4 °F 59.7 °F 30.1 in SW 0.9 mph 3 mph 74% 0 in 309 W/m2
11:28 68.4 °F 59.4 °F 30 in NW 4 mph 5 mph 73% 0 in 336 W/m2
11:33 68.5 °F 59.5 °F 30 in NW 0.9 mph 2 mph 73% 0 in 301 W/m2
11:38 68.5 °F 59.5 °F 30.1 in Calm   5 mph 73% 0 in 301 W/m2
11:43 68.5 °F 60.3 °F 30.1 in NE 2 mph 4 mph 75% 0 in 353 W/m2
11:48 68.5 °F 59.5 °F 30.1 in ENE 0.9 mph 5 mph 73% 0 in 394 W/m2
11:53 68.5 °F 59.5 °F 30.1 in Calm   3 mph 73% 0 in 330 W/m2
11:58 68.5 °F 59.5 °F 30.1 in WSW 4.9 mph 5 mph 73% 0 in 329 W/m2
12:03 68.7 °F 60.1 °F 30.1 in NNW 2 mph 3 mph 74% 0 in 299 W/m2
12:08 68.7 °F 60.1 °F 30.1 in ENE 0.9 mph 5 mph 74% 0 in 334 W/m2
12:13 68.9 °F 60.6 °F 30.1 in NE 0.9 mph 3 mph 75% 0 in 394 W/m2
12:18 69.1 °F 60.4 °F 30.1 in East 2.9 mph 6 mph 74% 0 in 353 W/m2
12:23 69.1 °F 60.1 °F 30.1 in East 2.9 mph 6 mph 73% 0 in 367 W/m2
12:28 68.9 °F 60.3 °F 30.1 in WSW 2.9 mph 4 mph 74% 0 in 513 W/m2
12:33 69.1 °F 60.1 °F 30.1 in WNW 0.9 mph 6 mph 73% 0 in 471 W/m2
12:38 69.3 °F 59.9 °F 30.1 in NNE 2 mph 6 mph 72% 0 in 350 W/m2
12:43 69.4 °F 60.4 °F 30 in NW 4.9 mph 6 mph 73% 0 in 858 W/m2
12:48 70 °F 60.6 °F 30 in ESE 4 mph 5 mph 72% 0 in 914 W/m2
12:53 70.3 °F 60.1 °F 30 in WNW 4 mph 10 mph 70% 0 in 1004 W/m2
12:58 70.7 °F 60.4 °F 30 in SW 4.9 mph 10 mph 70% 0 in 1004 W/m2
13:03 71.1 °F 60.8 °F 30 in ENE 0.9 mph 4 mph 70% 0 in 568 W/m2
13:08 71.2 °F 60.1 °F 30 in NNE 0.9 mph 10 mph 68% 0 in 571 W/m2
13:13 71.1 °F 60.4 °F 30 in NW 2.9 mph 6 mph 69% 0 in 443 W/m2
13:18 71.2 °F 61.3 °F 30 in North 2 mph 10 mph 71% 0 in 895 W/m2
13:23 71.8 °F 61 °F 30 in WNW 2.9 mph 4 mph 69% 0 in 645 W/m2
13:28 72 °F 60.4 °F 30 in NW 2 mph 7 mph 67% 0 in 360 W/m2
13:33 71.4 °F 60.3 °F 30 in ENE 2 mph 7 mph 68% 0 in 403 W/m2
13:38 71.4 °F 60.3 °F 30 in WNW 2 mph 4 mph 68% 0 in 461 W/m2
13:43 71.8 °F 60.3 °F 30 in NW 0.9 mph 4 mph 67% 0 in 387 W/m2
13:48 71.8 °F 60.3 °F 30 in Calm   2 mph 67% 0 in 385 W/m2
13:53 71.8 °F 60.3 °F 30 in WSW 2 mph 4 mph 67% 0 in 587 W/m2
13:58 72 °F 60.4 °F 30 in WNW 0.9 mph 3 mph 67% 0 in 905 W/m2
14:03 72.3 °F 60.3 °F 30 in WNW 4 mph 4 mph 66% 0 in 598 W/m2
14:08 72.7 °F 59.7 °F 30 in Calm   6 mph 64% 0 in 445 W/m2
14:13 73 °F 60.1 °F 30 in WSW 4 mph 4 mph 64% 0 in 517 W/m2
14:18 73 °F 60.1 °F 30 in NW 2.9 mph 6 mph 64% 0 in 480 W/m2
14:23 73.2 °F 59.4 °F 30 in NW 4 mph 6 mph 62% 0 in 1051 W/m2
14:28 73.6 °F 60.6 °F 30 in West 10.1 mph 10 mph 64% 0 in 1035 W/m2
14:33 73.2 °F 59.4 °F 30 in ESE 0.9 mph 3 mph 62% 0 in 406 W/m2
14:38 73.4 °F 59.5 °F 30 in North 2.9 mph 5 mph 62% 0 in 352 W/m2
14:43 73.2 °F 59.4 °F 30 in West 0.9 mph 2 mph 62% 0 in 302 W/m2
14:48 72.9 °F 59.5 °F 30 in WNW 2 mph 4 mph 63% 0 in 281 W/m2
14:53 72.9 °F 59.9 °F 30 in NW 0.9 mph 2 mph 64% 0 in 345 W/m2
14:58 73 °F 59.2 °F 30 in West 2.9 mph 4 mph 62% 0 in 506 W/m2
15:03 73.2 °F 59.9 °F 30 in WNW 4 mph 4 mph 63% 0 in 454 W/m2
15:08 73.2 °F 59 °F 30 in West 6.9 mph 7 mph 61% 0 in 427 W/m2
15:13 73 °F 59.7 °F 30 in WNW 2 mph 9 mph 63% 0 in 429 W/m2
15:18 73.6 °F 60.3 °F 30 in WNW 2 mph 4 mph 63% 0 in 990 W/m2
15:23 73.9 °F 59.7 °F 30 in NNE 0.9 mph 9 mph 61% 0 in 330 W/m2
15:28 74.3 °F 59.9 °F 30 in WSW 2 mph 3 mph 61% 0 in 257 W/m2
15:33 73.9 °F 59.7 °F 30 in WNW 2 mph 4 mph 61% 0 in 241 W/m2
15:38 73.6 °F 59.4 °F 30 in West 2.9 mph 4 mph 61% 0 in 380 W/m2
15:43 73.6 °F 58.8 °F 30 in SSW 2 mph 7 mph 60% 0 in 230 W/m2
15:48 73.6 °F 59.7 °F 30 in NW 2 mph 2 mph 62% 0 in 204 W/m2
15:53 73.6 °F 59.7 °F 30 in WNW 0.9 mph 3 mph 62% 0 in 246 W/m2
15:58 73.6 °F 59.7 °F 30 in NNW 0.9 mph 3 mph 62% 0 in 338 W/m2
16:03 73.8 °F 59.5 °F 30 in Calm   3 mph 61% 0 in 320 W/m2
16:08 73.9 °F 61.3 °F 30 in Calm   1 mph 65% 0 in 279 W/m2
16:13 73.9 °F 59.7 °F 30 in Calm   4 mph 61% 0 in 214 W/m2
16:18 74.1 °F 60.8 °F 30 in Calm   2 mph 63% 0 in 334 W/m2
16:23 74.5 °F 60.6 °F 30 in SW 2 mph 3 mph 62% 0 in 596 W/m2
16:28 75 °F 60.3 °F 30 in West 4 mph 9 mph 60% 0 in 413 W/m2
16:33 75 °F 60.3 °F 30 in West 2 mph 6 mph 60% 0 in 534 W/m2
16:38 74.7 °F 59.9 °F 30 in NNE 2.9 mph 8 mph 60% 0 in 267 W/m2
16:43 74.5 °F 60.1 °F 30 in West 0.9 mph 8 mph 61% 0 in 274 W/m2
16:49 74.5 °F 61 °F 30 in WSW 2 mph 3 mph 63% 0 in 257 W/m2
16:54 74.3 °F 59.9 °F 30 in NW 2.9 mph 8 mph 61% 0 in 271 W/m2
16:59 74.5 °F 60.1 °F 30 in West 2.9 mph 4 mph 61% 0 in 343 W/m2
17:04 74.5 °F 61 °F 30 in NW 0.9 mph 2 mph 63% 0 in 420 W/m2
17:09 74.8 °F 61 °F 30 in SW 2 mph 4 mph 62% 0 in 580 W/m2
17:14 74.8 °F 62.2 °F 30 in SE 0.9 mph 3 mph 65% 0 in 336 W/m2
17:19 74.8 °F 61.9 °F 30 in SE 0.9 mph 2 mph 64% 0 in 232 W/m2
17:24 74.8 °F 61 °F 30 in SW 2 mph 2 mph 62% 0 in 179 W/m2
17:29 74.7 °F 61.7 °F 30 in Calm   1 mph 64% 0 in 174 W/m2
17:34 74.7 °F 61.2 °F 30 in WSW 0.9 mph 2 mph 63% 0 in 183 W/m2
17:39 74.7 °F 61.7 °F 30 in Calm   1 mph 64% 0 in 163 W/m2
17:44 74.7 °F 61.7 °F 30 in SSW 2 mph 2 mph 64% 0 in 104 W/m2
17:49 74.5 °F 61.9 °F 30 in Calm   1 mph 65% 0 in 156 W/m2
17:54 74.5 °F 61.9 °F 30 in Calm     65% 0 in 125 W/m2
17:59 74.7 °F 63 °F 30 in Calm   1 mph 67% 0 in 72 W/m2
18:04 74.5 °F 64.4 °F 30 in Calm     71% 0 in 93 W/m2
18:09 74.3 °F 63.5 °F 30 in Calm     69% 0 in 84 W/m2
18:14 74.1 °F 64 °F 30 in Calm     71% 0 in 146 W/m2
18:19 73.9 °F 63.9 °F 30 in Calm   1 mph 71% 0 in 137 W/m2
18:24 73.8 °F 62.1 °F 30 in Calm   1 mph 67% 0 in 125 W/m2
18:29 73.8 °F 62.1 °F 30 in Calm     67% 0 in 111 W/m2
18:34 73.9 °F 63.5 °F 30 in Calm     70% 0 in 141 W/m2
18:39 73.9 °F 63.9 °F 30 in Calm     71% 0 in 160 W/m2
18:44 73.9 °F 63.5 °F 30 in Calm     70% 0 in 113 W/m2
18:49 73.9 °F 63.9 °F 30 in Calm     71% 0 in 95 W/m2
18:54 73.9 °F 62.2 °F 30 in West 2 mph 2 mph 67% 0 in 121 W/m2
18:59 73.8 °F 62.1 °F 30 in Calm   1 mph 67% 0 in 120 W/m2
19:04 73.8 °F 60.8 °F 30 in WSW 2 mph 4 mph 64% 0 in 121 W/m2
19:09 73.6 °F 61.2 °F 30 in NW 2.9 mph 3 mph 65% 0 in 74 W/m2
19:14 73.2 °F 61.5 °F 30 in WNW 2 mph 3 mph 67% 0 in 81 W/m2
19:19 73 °F 61 °F 30 in West 2.9 mph 3 mph 66% 0 in 72 W/m2
19:24 72.9 °F 61.3 °F 30 in Calm   2 mph 67% 0 in 70 W/m2
19:29 72.7 °F 61.9 °F 30 in WNW 0.9 mph 2 mph 69% 0 in 76 W/m2
19:34 72.3 °F 61.2 °F 30 in WNW 0.9 mph 3 mph 68% 0 in 53 W/m2
19:39 72.1 °F 61.3 °F 30 in WNW 0.9 mph 2 mph 69% 0 in 44 W/m2
19:44 72.1 °F 61.9 °F 30 in WNW 2 mph 4 mph 70% 0 in 47 W/m2
19:49 72 °F 60.8 °F 30 in WNW 0.9 mph 3 mph 68% 0 in 56 W/m2
19:54 71.8 °F 61 °F 30 in West 2 mph 3 mph 69% 0 in 47 W/m2
19:59 71.8 °F 61.5 °F 30 in Calm   1 mph 70% 0 in 39 W/m2
20:04 71.4 °F 61.2 °F 30 in West 0.9 mph 3 mph 70% 0 in 28 W/m2
20:09 71.2 °F 61.3 °F 30 in WSW 2.9 mph 4 mph 71% 0 in 25 W/m2
20:14 71.1 °F 60.8 °F 30 in West 0.9 mph 4 mph 70% 0 in 18 W/m2
20:19 70.9 °F 61 °F 30 in West 2 mph 3 mph 71% 0 in 14 W/m2
20:24 70.5 °F 61 °F 30 in WNW 2 mph 4 mph 72% 0 in 11 W/m2
20:29 70.3 °F 60.8 °F 30 in West 2.9 mph 4 mph 72% 0 in 9 W/m2
20:34 70.2 °F 60.6 °F 30 in West 0.9 mph 3 mph 72% 0 in 7 W/m2
20:39 70 °F 61 °F 30 in West 0.9 mph 4 mph 73% 0 in 5 W/m2
20:44 69.8 °F 60.8 °F 30 in Calm   3 mph 73% 0 in 5 W/m2
20:49 69.6 °F 60.6 °F 30 in West 0.9 mph 3 mph 73% 0 in 5 W/m2
20:54 69.6 °F 61 °F 30 in West 2 mph 3 mph 74% 0 in 5 W/m2
20:59 69.4 °F 60.8 °F 30 in WSW 0.9 mph 3 mph 74% 0 in 0 W/m2
21:04 69.4 °F 60.8 °F 30 in WSW 2 mph 3 mph 74% 0 in 0 W/m2
21:09 69.3 °F 60.6 °F 30 in Calm   2 mph 74% 0 in 0 W/m2
21:14 69.3 °F 60.6 °F 30 in Calm   3 mph 74% 0 in 0 W/m2
21:19 69.3 °F 60.6 °F 30 in WSW 0.9 mph 2 mph 74% 0 in 0 W/m2
21:24 69.1 °F 60.8 °F 30 in Calm   3 mph 75% 0 in 0 W/m2
21:29 69.1 °F 60.8 °F 30 in SW 0.9 mph 1 mph 75% 0 in 0 W/m2
21:34 69.1 °F 60.8 °F 30 in Calm   2 mph 75% 0 in 0 W/m2
21:39 68.9 °F 60.6 °F 30 in Calm   1 mph 75% 0 in 0 W/m2
21:44 68.7 °F 60.8 °F 30 in Calm     76% 0 in 0 W/m2
21:49 68.5 °F 61 °F 30 in Calm     77% 0 in 0 W/m2
21:54 68.5 °F 61.3 °F 30 in Calm     78% 0 in 0 W/m2
21:59 68.4 °F 61.2 °F 30 in Calm     78% 0 in 0 W/m2
22:04 68 °F 61.2 °F 30 in Calm     79% 0 in 0 W/m2
22:09 67.6 °F 61.2 °F 30 in Calm     80% 0 in 0 W/m2
22:14 67.5 °F 61.2 °F 30 in Calm     80% 0 in 0 W/m2
22:19 67.1 °F 61.2 °F 30 in Calm     81% 0 in 0 W/m2
22:24 66.7 °F 60.8 °F 30 in Calm     81% 0 in 0 W/m2
22:29 66.6 °F 61 °F 30 in Calm     82% 0 in 0 W/m2
22:34 66.4 °F 60.8 °F 30 in Calm     82% 0 in 0 W/m2
22:39 66.2 °F 60.8 °F 30 in Calm     83% 0 in 0 W/m2
22:44 66 °F 60.6 °F 30 in Calm     83% 0 in 0 W/m2
22:49 65.8 °F 60.8 °F 30 in Calm     84% 0 in 0 W/m2
22:54 65.7 °F 60.6 °F 30 in Calm     84% 0 in 0 W/m2
22:59 65.7 °F 60.6 °F 30 in Calm     84% 0 in 0 W/m2
23:04 65.5 °F 60.4 °F 30 in Calm     84% 0 in 0 W/m2
23:09 65.5 °F 60.8 °F 30 in Calm     85% 0 in 0 W/m2
23:14 65.3 °F 60.6 °F 30 in Calm     85% 0 in 0 W/m2
23:19 65.1 °F 60.4 °F 30 in Calm     85% 0 in 0 W/m2
23:24 65.1 °F 60.8 °F 30 in Calm     86% 0 in 0 W/m2
23:29 65.1 °F 60.8 °F 30 in Calm     86% 0 in 0 W/m2
23:34 64.9 °F 60.6 °F 30 in Calm     86% 0 in 0 W/m2
23:39 64.9 °F 60.6 °F 30 in Calm     86% 0 in 0 W/m2
23:44 64.9 °F 61 °F 30 in Calm     87% 0 in 0 W/m2
23:49 64.9 °F 61 °F 30 in Calm     87% 0 in 0 W/m2
23:54 64.8 °F 60.8 °F 30 in Calm     87% 0 in 0 W/m2
23:59 64.8 °F 60.8 °F 30 in Calm     87% 0 in 0 W/m2
Juneau County Weather
Compliments of Weather Underground - 4 mb